Tiempo atmosférico en la estación meteorológica de Alberca de Zancara, Cuenca (805 m.)



Fecha
DESCASC
Temp. máxima en grados centígrados (hora)
DESCASC
Temp. mínima en grados centígrados (hora)
DESCASC
Temp. media en grados centígrados
DESCASC
Racha de viento máxima en m/sg (hora)
DESCASC
Velocidad máxima media en intervalos de 10 minutos(hora)
DESCASC
Precipitaciones diarias en mm
DESCASC
Precipitaciones de 00:00 a 06:00 en mm
DESCASC
Precipitaciones de 06:00 a 12:00 en mm
DESCASC
Precipitaciones de 12:00 a 18:00 en mm
DESCASC
Precipitaciones de 18:00 a 24:00 en mm
DESCASC
18-01-2019 8.9 (14:50) -2 (08:00) 3.4 6.94 (17:00) 4.72 (17:40) 0 0 0 0 0
17-01-2019 7.8 (16:20) -2 (-00:0) 2.9 6.11 (14:20) 3.89 (14:30) 0 0 0 0 0
16-01-2019 10.2 (16:00) -3.9 (-00:0) 3.1 9.44 (14:10) 5.83 (12:40) 0 0 0 0 0
15-01-2019 15.2 (16:10) -0.5 (-00:0) 7.3 5.83 (12:10) 3.06 (12:10) 0 0 0 0 0
14-01-2019 16.2 (16:40) -0.2 (00:00) 8 10.83 (14:50) 5.83 (15:30) 0 0 0 0 0
13-01-2019 13.5 (15:40) -2.6 (-00:0) 5.5 9.72 (14:10) 5.83 (14:10) 0 0 0 0 0
12-01-2019 11.2 (15:40) -3.8 (-00:0) 3.7 5.56 (20:00) 3.33 (16:00) 0 0 0 0 0
11-01-2019 8.1 (16:30) -5.1 (-00:0) 1.5 5 (02:40) 2.78 (21:50) 0 0 0 0 0
10-01-2019 8.1 (14:40) -1.3 (-00:0) 3.4 10.56 (13:10) 6.67 (16:40) 0 0 0 0 0
09-01-2019 13.1 (15:10) 0.6 (00:00) 6.9 10.56 (16:00) 6.39 (16:10) 0 0 0 0 0
08-01-2019 13.9 (14:50) -2.9 (-00:0) 5.5 6.39 (23:59) 4.17 (22:20) 0 0 0 0 0
07-01-2019 14.5 (16:20) -3.5 (-00:0) 5.5 3.61 (05:00) 1.94 (05:00) 0 0 0 0 0
06-01-2019 13.5 (16:00) -1.7 (-00:0) 5.9 4.44 (00:20) 2.5 (00:20) 0 0 0 0 0
05-01-2019 12 (16:40) -4.4 (-00:0) 3.8 5.28 (15:40) 3.89 (15:50) 0 0 0 0 0
04-01-2019 14.7 (16:40) -3.1 (-00:0) 5.8 3.33 (06:10) 2.22 (06:20) 0 0 0 0 0
03-01-2019 11.3 (15:20) -0.6 (-00:0) 5.4 7.22 (12:40) 3.61 (12:10) 0 0 0 0 0
02-01-2019 12.6 (15:00) -3.2 (-00:0) 4.7 5.83 (16:10) 3.61 (13:30) 0 0 0 0 0
01-01-2019 14.4 (15:40) -3 (-00:0) 5.7 5.56 (14:30) 3.61 (14:20) 0 0 0 0 0
31-12-2018 17.1 (16:00) -1.1 (-00:0) 8 2.5 (10:40) 1.39 (11:00) 0 0 0 0 0
30-12-2018 14.9 (16:30) -1.5 (-00:0) 6.7 4.17 (11:10) 2.22 (11:10) 0 0 0 0 0
29-12-2018 12.5 (14:40) -0.1 (00:00) 6.2 6.67 (11:10) 4.17 (11:10) 0 0 0 0 0
28-12-2018 9.1 (14:50) -2.3 (-00:0) 3.4 4.72 (13:10) 2.22 (13:10) 0 0 0 0 0
27-12-2018 11.6 (15:00) -2.2 (-00:0) 4.7 5.56 (15:40) 3.33 (16:00) 0 0 0 0 0
26-12-2018 14.7 (15:40) 1.3 (00:00) 8 4.17 (00:10) 2.22 (00:20) 0 0 0 0 0
25-12-2018 14.8 (14:10) 1.4 (00:00) 8.1 6.94 (14:30) 3.61 (13:30) 0 0 0 0 0
24-12-2018 15.2 (14:10) -0.2 (07:50) 7.5 3.61 (14:20) 2.22 (14:30) 0.2 0.2 0 0 0
23-12-2018 13.3 (15:10) -0.6 (-00:0) 6.4 3.33 (16:00) 1.94 (15:50) 0.2 0.2 0 0 0
22-12-2018 12.3 (15:00) 2.9 (00:00) 7.6 5.83 (16:20) 3.61 (16:30) 0 0 0 0 0
21-12-2018 10.9 (14:10) 1.2 (01:40) 6 5.83 (16:30) 3.89 (16:20) 0 0 0 0 0

Gráficas

Temp. máximas Temp. mínimas Temp. medias Precipitaciones Rachas de viento máximas Velocidades máximas media en intervalos de 10 minutos

Datos horarios

Fecha y hora oficial Temperatura (ºC) Velocidad del viento (km/h) Dirección del viento Racha (km/h) Dirección de racha Precipitación (mm) Presión (hPa) Tendencia (hPa) Humedad (%)
2019-01-19 23:00:00 4.2 11 Sudoeste 25 Oeste 1 -- -- 97
2019-01-19 22:00:00 4.2 10 Sudoeste 21 Oeste 0.6 -- -- 97
2019-01-19 21:00:00 4.2 13 Oeste 22 Sudoeste 0.2 -- -- 97
2019-01-19 20:00:00 4.1 11 Oeste 18 Oeste 0 -- -- 96
2019-01-19 19:00:00 4.1 12 Oeste 22 Oeste 0.2 -- -- 94
2019-01-19 18:00:00 4.7 15 Oeste 26 Oeste 0.2 -- -- 86
2019-01-19 17:00:00 5.9 19 Oeste 26 Oeste 0 -- -- 75
2019-01-19 16:00:00 6.8 17 Oeste 30 Sudoeste 0 -- -- 65
2019-01-19 15:00:00 6.8 14 Oeste 26 Oeste 0 -- -- 65
2019-01-19 14:00:00 6.4 14 Oeste 24 Oeste 0 -- -- 63
2019-01-19 13:00:00 6.5 12 Oeste 20 Oeste 0 -- -- 66
2019-01-19 12:00:00 4.5 8 Oeste 14 Oeste 0 -- -- 75
2019-01-19 11:00:00 2.8 6 Oeste 12 Oeste 0 -- -- 81
2019-01-19 10:00:00 -0.3 0 Calma 2 Sudeste 0 -- -- 90
2019-01-19 09:00:00 -2.8 0 Calma 5 Noroeste 0 -- -- 94
2019-01-19 08:00:00 -2.8 0 Calma 8 Noroeste 0 -- -- 91
2019-01-19 07:00:00 -1.6 2 Noroeste 7 Noroeste 0 -- -- 92
2019-01-19 06:00:00 -3 0 Calma 6 Norte 0 -- -- 92
2019-01-19 05:00:00 -3.4 0 Calma 2 Este 0 -- -- 87
2019-01-19 04:00:00 -1.8 0 Calma 7 Noroeste 0 -- -- 87
2019-01-19 03:00:00 -0.5 4 Noroeste 12 Noroeste 0 -- -- 82
2019-01-19 02:00:00 0.5 6 Noroeste 14 Noroeste 0 -- -- 77
2019-01-19 01:00:00 0.9 6 Noroeste 13 Noroeste 0 -- -- 76
2019-01-19 00:00:00 1.5 6 Noroeste 10 Noroeste 0 -- -- 72
2019-01-18 23:00:00 2.4 3 Noroeste 12 Noroeste 0 -- -- 67
2019-01-18 22:00:00 3.1 6 Noroeste 11 Noroeste 0 -- -- 64
2019-01-18 21:00:00 2.7 5 Noroeste 8 Noroeste 0 -- -- 64
2019-01-18 20:00:00 3.8 5 Oeste 9 Oeste 0 -- -- 59
2019-01-18 19:00:00 4.3 4 Noroeste 17 Oeste 0 -- -- 56
2019-01-18 18:00:00 5.9 14 Oeste 24 Oeste 0 -- -- 50
2019-01-18 17:00:00 8.8 12 Noroeste 25 Oeste 0 -- -- 39
2019-01-18 16:00:00 8.2 10 Noroeste 19 Noroeste 0 -- -- 40
2019-01-18 15:00:00 8.4 8 Noroeste 18 Noroeste 0 -- -- 44
2019-01-18 14:00:00 8.2 7 Noroeste 20 Norte 0 -- -- 43
2019-01-18 13:00:00 7.2 5 Noroeste 15 Noroeste 0 -- -- 50
2019-01-18 12:00:00 6.2 8 Noroeste 15 Noroeste 0 -- -- 55
2019-01-18 11:00:00 3.5 3 Sudoeste 5 Sudoeste 0 -- -- 67
2019-01-18 10:00:00 0.3 0 Calma 5 Nordeste 0 -- -- 79
2019-01-18 09:00:00 -1.3 6 Norte 9 Norte 0 -- -- 82
2019-01-18 08:00:00 -2 5 Norte 12 Norte 0 -- -- 81
2019-01-18 07:00:00 -1.2 4 Nordeste 12 Norte 0 -- -- 79
2019-01-18 06:00:00 -0.9 6 Norte 10 Norte 0 -- -- 77
2019-01-18 05:00:00 -0.3 4 Norte 9 Norte 0 -- -- 75
2019-01-18 04:00:00 1.3 2 Nordeste 18 Nordeste 0 -- -- 70
2019-01-18 03:00:00 3.1 9 Nordeste 19 Nordeste 0 -- -- 66
2019-01-18 02:00:00 3.7 3 Nordeste 12 Nordeste 0 -- -- 66
2019-01-18 01:00:00 4.2 5 Nordeste 16 Nordeste 0 -- -- 65
2019-01-18 00:00:00 4.8 5 Norte 13 Norte 0 -- -- 64
2019-01-17 23:00:00 4.7 3 Norte 6 Norte 0 -- -- 71
2019-01-17 22:00:00 5.4 0 Calma 9 Nordeste 0 -- -- 74
2019-01-17 21:00:00 5.9 6 Nordeste 17 Este 0 -- -- 67
2019-01-17 20:00:00 6.3 6 Nordeste 16 Nordeste 0 -- -- 68
2019-01-17 19:00:00 5.7 7 Oeste 17 Oeste 0 -- -- 77
2019-01-17 18:00:00 6.2 10 Oeste 22 Oeste 0 -- -- 74
2019-01-17 17:00:00 6.8 13 Oeste 21 Oeste 0 -- -- 73
2019-01-17 16:00:00 7.4 12 Noroeste 21 Oeste 0 -- -- 70
2019-01-17 15:00:00 6.3 10 Noroeste 22 Noroeste 0 -- -- 75
2019-01-17 14:00:00 6.7 10 Noroeste 18 Noroeste 0 -- -- 71
2019-01-17 13:00:00 6.9 9 Noroeste 18 Oeste 0 -- -- 70
2019-01-17 12:00:00 7.3 9 Noroeste 18 Norte 0 -- -- 70
2019-01-17 11:00:00 4.4 8 Noroeste 18 Oeste 0 -- -- 86
2019-01-17 10:00:00 2.9 9 Noroeste 16 Norte 0 -- -- 92
2019-01-17 09:00:00 2.2 7 Noroeste 12 Noroeste 0 -- -- 96
2019-01-17 08:00:00 2.1 4 Noroeste 14 Noroeste 0 -- -- 96
2019-01-17 07:00:00 1.2 2 Oeste 4 Oeste 0 -- -- 98
2019-01-17 06:00:00 0.1 0 Calma 6 Sudoeste 0 -- -- 97
2019-01-17 05:00:00 -1 0 Calma 4 Noroeste 0 -- -- 98
2019-01-17 04:00:00 -1.4 0 Calma 3 Norte 0 -- -- 95
2019-01-17 03:00:00 -0.7 0 Calma 2 Norte 0 -- -- 95
2019-01-17 02:00:00 0.5 2 Nordeste 6 Norte 0 -- -- 94
2019-01-17 01:00:00 0.9 4 Norte 9 Norte 0 -- -- 92
2019-01-17 00:00:00 0.3 4 Noroeste 9 Oeste 0 -- -- 95
2019-01-16 23:00:00 0.6 4 Oeste 12 Noroeste 0 -- -- 89
2019-01-16 22:00:00 2.4 10 Noroeste 16 Noroeste 0 -- -- 84
2019-01-16 21:00:00 2.8 5 Oeste 13 Noroeste 0 -- -- 79
2019-01-16 20:00:00 4.1 10 Oeste 15 Oeste 0 -- -- 79
2019-01-16 19:00:00 5.1 9 Oeste 15 Oeste 0 -- -- 76
2019-01-16 18:00:00 7.4 9 Oeste 23 Oeste 0 -- -- 67
2019-01-16 17:00:00 9.2 16 Oeste 28 Oeste 0 -- -- 62
2019-01-16 16:00:00 10.2 16 Oeste 31 Oeste 0 -- -- 61
2019-01-16 15:00:00 10 18 Oeste 34 Oeste 0 -- -- 63
2019-01-16 14:00:00 9.5 18 Oeste 31 Oeste 0 -- -- 66
2019-01-16 13:00:00 7.9 19 Oeste 30 Oeste 0 -- -- 73